createdAt,value
2019-05-02T00:02:24.136Z,100.00
2019-05-02T00:04:55.777Z,100.00
2019-05-02T00:07:25.304Z,100.00
2019-05-02T00:09:54.600Z,100.00
2019-05-02T00:12:25.486Z,100.00
2019-05-02T00:14:56.673Z,100.00
2019-05-02T00:17:27.597Z,100.00
2019-05-02T00:19:56.616Z,100.00
2019-05-02T00:22:25.735Z,100.00
2019-05-02T00:24:54.724Z,100.00
2019-05-02T00:27:23.868Z,100.00
2019-05-02T00:29:53.831Z,100.00
2019-05-02T00:32:23.780Z,100.00
2019-05-02T00:34:52.798Z,100.00
2019-05-02T00:37:24.728Z,100.00
2019-05-02T00:39:52.457Z,100.00
2019-05-02T00:42:22.445Z,100.00
2019-05-02T00:44:52.305Z,100.00
2019-05-02T00:47:29.233Z,100.00
2019-05-02T00:49:58.209Z,100.00
2019-05-02T00:52:27.198Z,100.00
2019-05-02T00:54:58.732Z,100.00
2019-05-02T00:57:26.974Z,100.00
2019-05-02T00:59:55.993Z,100.00
2019-05-02T01:02:31.501Z,100.00
2019-05-02T01:05:03.228Z,100.00
2019-05-02T01:07:31.404Z,100.00
2019-05-02T01:10:00.412Z,100.00
2019-05-02T01:12:29.452Z,100.00
2019-05-02T01:14:58.449Z,100.00
2019-05-02T01:17:30.880Z,100.00
2019-05-02T01:19:58.210Z,100.00
2019-05-02T01:22:27.238Z,100.00
2019-05-02T01:24:56.296Z,100.00
2019-05-02T01:27:41.141Z,100.00
2019-05-02T01:30:21.188Z,100.00
2019-05-02T01:33:06.454Z,100.00
2019-05-02T01:36:06.413Z,100.00
2019-05-02T01:38:41.859Z,100.00
2019-05-02T01:41:11.020Z,100.00
2019-05-02T01:43:40.000Z,100.00
2019-05-02T01:46:09.056Z,100.00
2019-05-02T01:48:40.237Z,100.00
2019-05-02T01:51:09.918Z,100.00
2019-05-02T01:53:39.630Z,100.00
2019-05-02T01:56:08.683Z,100.00
2019-05-02T01:58:37.738Z,100.00
2019-05-02T02:01:06.856Z,100.00
2019-05-02T02:03:40.490Z,100.00
2019-05-02T02:06:08.044Z,100.00
2019-05-02T02:08:37.527Z,100.00
2019-05-02T02:11:06.655Z,100.00
2019-05-02T02:13:36.662Z,100.00
2019-05-02T02:16:06.625Z,100.00
2019-05-02T02:18:39.966Z,100.00
2019-05-02T02:21:30.721Z,100.00
2019-05-02T02:24:04.512Z,100.00
2019-05-02T02:26:33.486Z,100.00
2019-05-02T02:29:03.208Z,100.00
2019-05-02T02:31:39.541Z,100.00
2019-05-02T02:34:04.062Z,100.00
2019-05-02T02:36:34.864Z,100.00
2019-05-02T02:39:07.060Z,100.00
2019-05-02T02:41:36.029Z,100.00
2019-05-02T02:44:22.127Z,100.00
2019-05-02T02:46:51.360Z,100.00
2019-05-02T02:49:24.418Z,100.00
2019-05-02T02:51:58.168Z,100.00
2019-05-02T02:54:23.199Z,100.00
2019-05-02T02:56:52.315Z,100.00
2019-05-02T02:59:26.366Z,100.00
2019-05-02T03:01:52.037Z,100.00
2019-05-02T03:04:22.582Z,100.00
2019-05-02T03:06:51.615Z,100.00
2019-05-02T03:09:26.605Z,100.00
2019-05-02T03:12:09.242Z,100.00
2019-05-02T03:14:47.063Z,100.00
2019-05-02T03:17:20.591Z,100.00
2019-05-02T03:19:47.170Z,100.00
2019-05-02T03:22:17.713Z,100.00
2019-05-02T03:24:47.719Z,100.00
2019-05-02T03:27:17.405Z,100.00
2019-05-02T03:29:46.522Z,100.00
2019-05-02T03:32:30.845Z,100.00
2019-05-02T03:34:52.246Z,100.00
2019-05-02T03:37:17.957Z,100.00
2019-05-02T03:39:49.522Z,100.00
2019-05-02T03:42:17.864Z,100.00
2019-05-02T03:44:54.583Z,100.00
2019-05-02T03:47:19.520Z,100.00
2019-05-02T03:49:51.822Z,100.00
2019-05-02T03:52:19.365Z,100.00
2019-05-02T03:54:49.933Z,100.00
2019-05-02T03:57:32.175Z,100.00
2019-05-02T03:59:50.198Z,100.00
2019-05-02T04:02:20.287Z,100.00
2019-05-02T04:04:54.357Z,100.00
2019-05-02T04:07:20.907Z,100.00
2019-05-02T04:09:49.932Z,100.00
2019-05-02T04:12:21.710Z,100.00
2019-05-02T04:14:55.582Z,100.00
2019-05-02T04:17:28.539Z,100.00
2019-05-02T04:19:53.516Z,100.00
2019-05-02T04:22:23.359Z,100.00
2019-05-02T04:24:56.900Z,100.00
2019-05-02T04:27:27.635Z,100.00
2019-05-02T04:29:55.996Z,100.00
2019-05-02T04:32:24.974Z,100.00
2019-05-02T04:34:55.265Z,100.00
2019-05-02T04:37:24.799Z,100.00
2019-05-02T04:39:58.185Z,100.00
2019-05-02T04:42:24.483Z,100.00
2019-05-02T04:45:14.068Z,100.00
2019-05-02T04:47:24.214Z,100.00
2019-05-02T04:49:53.179Z,100.00
2019-05-02T04:52:22.145Z,100.00
2019-05-02T04:54:51.136Z,100.00
2019-05-02T04:57:20.110Z,100.00
2019-05-02T04:59:50.573Z,100.00
2019-05-02T05:02:21.264Z,100.00
2019-05-02T05:04:50.546Z,100.00
2019-05-02T05:07:19.525Z,100.00
2019-05-02T05:09:56.909Z,100.00
2019-05-02T05:12:19.502Z,100.00
2019-05-02T05:14:48.577Z,100.00
2019-05-02T05:17:19.880Z,100.00
2019-05-02T05:19:48.732Z,100.00
2019-05-02T05:22:18.476Z,100.00
2019-05-02T05:24:53.280Z,100.00
2019-05-02T05:27:22.906Z,100.00
2019-05-02T05:29:53.490Z,100.00
2019-05-02T05:32:22.975Z,100.00
2019-05-02T05:34:53.533Z,100.00
2019-05-02T05:37:22.666Z,100.00
2019-05-02T05:39:52.702Z,100.00
2019-05-02T05:42:31.806Z,100.00
2019-05-02T05:44:54.731Z,100.00
2019-05-02T05:47:23.738Z,100.00
2019-05-02T05:49:57.712Z,100.00
2019-05-02T05:52:27.142Z,100.00
2019-05-02T05:54:57.933Z,100.00
2019-05-02T05:57:27.936Z,100.00
2019-05-02T05:59:58.438Z,100.00
2019-05-02T06:02:28.401Z,100.00
2019-05-02T06:05:02.248Z,100.00
2019-05-02T06:07:33.083Z,100.00
2019-05-02T06:10:02.392Z,100.00
2019-05-02T06:12:35.201Z,100.00
2019-05-02T06:15:03.790Z,100.00
2019-05-02T06:17:32.932Z,100.00
2019-05-02T06:20:01.996Z,100.00
2019-05-02T06:22:30.978Z,100.00
2019-05-02T06:25:01.549Z,100.00
2019-05-02T06:27:30.613Z,100.00
2019-05-02T06:30:01.940Z,100.00
2019-05-02T06:32:30.908Z,100.00
2019-05-02T06:34:59.986Z,100.00
2019-05-02T06:37:28.958Z,100.00
2019-05-02T06:39:58.005Z,100.00
2019-05-02T06:42:27.593Z,100.00
2019-05-02T06:44:59.832Z,100.00
2019-05-02T06:47:28.675Z,100.00
2019-05-02T06:50:01.095Z,100.00
2019-05-02T06:52:32.617Z,100.00
2019-05-02T06:55:00.553Z,100.00
2019-05-02T06:57:29.551Z,100.00
2019-05-02T06:59:58.556Z,100.00
2019-05-02T07:02:28.266Z,100.00
2019-05-02T07:04:58.553Z,100.00
2019-05-02T07:07:30.711Z,100.00
2019-05-02T07:09:58.323Z,100.00
2019-05-02T07:12:27.652Z,100.00
2019-05-02T07:15:01.693Z,100.00
2019-05-02T07:17:40.267Z,100.00
2019-05-02T07:20:09.965Z,100.00
2019-05-02T07:22:40.893Z,100.00
2019-05-02T07:25:11.379Z,100.00
2019-05-02T07:27:40.455Z,100.00
2019-05-02T07:30:11.542Z,100.00
2019-05-02T07:32:40.502Z,100.00
2019-05-02T07:35:09.669Z,100.00
2019-05-02T07:37:38.717Z,100.00
2019-05-02T07:40:12.014Z,100.00
2019-05-02T07:42:41.859Z,98.96
2019-05-02T07:45:14.539Z,97.68
2019-05-02T07:47:43.534Z,96.57
2019-05-02T07:50:13.654Z,94.98
2019-05-02T07:52:42.654Z,92.50
2019-05-02T07:55:12.168Z,91.53
2019-05-02T07:57:41.288Z,90.33
2019-05-02T08:00:11.199Z,90.33
2019-05-02T08:02:40.159Z,89.75
2019-05-02T08:05:09.610Z,89.21
2019-05-02T08:07:38.738Z,86.74
2019-05-02T08:10:08.843Z,86.74
2019-05-02T08:12:37.811Z,86.24
2019-05-02T08:15:13.191Z,86.47
2019-05-02T08:17:38.354Z,85.67
2019-05-02T08:20:08.694Z,85.67
2019-05-02T08:22:37.845Z,84.55
2019-05-02T08:25:10.398Z,84.07
2019-05-02T08:28:04.679Z,85.23
2019-05-02T08:30:41.904Z,84.79
2019-05-02T08:33:11.033Z,84.18
2019-05-02T08:35:40.036Z,84.92
2019-05-02T08:38:12.463Z,84.92
2019-05-02T08:40:47.902Z,84.70
2019-05-02T08:43:15.940Z,84.70
2019-05-02T08:45:48.885Z,84.85
2019-05-02T08:51:15.886Z,83.72
2019-05-02T08:54:06.226Z,87.25
2019-05-02T08:56:41.607Z,85.43
2019-05-02T08:59:13.508Z,85.43
2019-05-02T09:01:44.790Z,80.17
2019-05-02T09:04:13.426Z,80.17
2019-05-02T09:06:46.445Z,82.25
2019-05-02T09:13:42.132Z,80.50
2019-05-02T09:15:51.086Z,80.50
2019-05-02T09:24:32.592Z,77.99
2019-05-02T09:27:07.640Z,75.93
2019-05-02T09:29:49.084Z,75.86
2019-05-02T09:32:52.225Z,77.44
2019-05-02T09:35:29.598Z,77.20
2019-05-02T09:45:15.804Z,78.74
2019-05-02T09:56:24.933Z,77.24
2019-05-02T10:24:42.530Z,87.09
2019-05-02T10:27:45.956Z,89.81
2019-05-02T10:34:29.819Z,91.86
2019-05-02T10:37:56.718Z,90.75
2019-05-02T10:41:24.953Z,92.12
2019-05-02T10:58:40.023Z,94.04
2019-05-02T11:43:54.140Z,100.00
2019-05-02T11:46:42.138Z,100.00
2019-05-02T11:49:39.235Z,100.00
2019-05-02T11:55:46.203Z,100.00
2019-05-02T11:58:15.465Z,100.00
2019-05-02T12:00:57.625Z,100.00
2019-05-02T12:03:42.154Z,100.00
2019-05-02T12:07:48.493Z,100.00
2019-05-02T12:32:12.061Z,100.00
2019-05-02T12:39:42.560Z,100.00
2019-05-02T12:41:55.863Z,100.00
2019-05-02T12:53:32.671Z,100.00
2019-05-02T13:05:28.145Z,100.00
2019-05-02T13:08:35.737Z,100.00
2019-05-02T13:13:48.829Z,100.00
2019-05-02T13:16:35.954Z,100.00
2019-05-02T13:22:35.475Z,100.00
2019-05-02T13:25:10.450Z,100.00
2019-05-02T13:27:44.365Z,100.00
2019-05-02T13:44:52.559Z,100.00
2019-05-02T13:46:48.772Z,100.00
2019-05-02T13:51:00.660Z,100.00
2019-05-02T13:53:12.018Z,100.00
2019-05-02T13:56:08.717Z,100.00
2019-05-02T14:01:27.976Z,100.00
2019-05-02T14:04:23.954Z,100.00
2019-05-02T14:06:55.453Z,100.00
2019-05-02T14:09:44.019Z,100.00
2019-05-02T14:12:22.383Z,100.00
2019-05-02T14:14:52.013Z,100.00
2019-05-02T14:17:23.657Z,100.00
2019-05-02T14:20:07.785Z,100.00
2019-05-02T14:28:58.718Z,100.00
2019-05-02T14:31:56.854Z,100.00
2019-05-02T14:50:24.211Z,100.00
2019-05-02T14:52:51.344Z,100.00
2019-05-02T14:56:12.196Z,100.00
2019-05-02T15:01:08.062Z,100.00
2019-05-02T15:03:19.221Z,100.00
2019-05-02T15:06:03.370Z,100.00
2019-05-02T15:08:54.277Z,100.00
2019-05-02T15:12:37.902Z,100.00
2019-05-02T15:18:23.329Z,100.00
2019-05-02T15:20:55.639Z,100.00
2019-05-02T15:29:36.549Z,100.00
2019-05-02T15:33:25.462Z,100.00
2019-05-02T15:36:09.586Z,100.00
2019-05-02T15:38:47.148Z,100.00
2019-05-02T15:43:09.166Z,100.00
2019-05-02T15:45:05.483Z,100.00
2019-05-02T15:47:58.477Z,100.00
2019-05-02T15:51:14.675Z,100.00
2019-05-02T15:54:08.425Z,100.00
2019-05-02T16:00:33.698Z,100.00
2019-05-02T16:04:09.207Z,100.00
2019-05-02T16:06:37.021Z,100.00
2019-05-02T16:09:17.616Z,100.00
2019-05-02T16:16:07.805Z,100.00
2019-05-02T16:18:14.366Z,100.00
2019-05-02T16:21:05.533Z,100.00
2019-05-02T16:23:37.487Z,100.00
2019-05-02T16:26:05.859Z,100.00
2019-05-02T16:28:44.211Z,100.00
2019-05-02T16:31:22.151Z,100.00
2019-05-02T16:34:05.355Z,99.40
2019-05-02T16:37:55.934Z,97.71
2019-05-02T16:43:32.788Z,96.02
2019-05-02T16:46:15.964Z,96.02
2019-05-02T16:48:54.942Z,95.15
2019-05-02T16:51:32.257Z,92.46
2019-05-02T16:57:32.710Z,97.10
2019-05-02T17:00:48.522Z,94.50
2019-05-02T17:06:56.943Z,91.13
2019-05-02T17:10:29.653Z,91.96
2019-05-02T17:13:13.729Z,90.93
2019-05-02T17:16:15.840Z,92.29
2019-05-02T17:19:12.244Z,94.89
2019-05-02T17:22:12.115Z,93.47
2019-05-02T17:25:01.449Z,93.47
2019-05-02T17:27:24.669Z,94.95
2019-05-02T17:29:59.220Z,94.95
2019-05-02T17:32:49.368Z,93.86
2019-05-02T17:38:07.902Z,94.04
2019-05-02T17:40:45.267Z,95.23
2019-05-02T17:43:18.684Z,95.23
2019-05-02T17:45:49.090Z,93.06
2019-05-02T17:48:19.906Z,93.50
2019-05-02T17:51:15.070Z,94.04
2019-05-02T17:53:56.151Z,93.01
2019-05-02T17:56:20.847Z,95.02
2019-05-02T17:58:56.865Z,96.28
2019-05-02T18:01:54.174Z,95.99
2019-05-02T18:04:21.518Z,95.56
2019-05-02T18:06:55.148Z,95.84
2019-05-02T18:09:35.153Z,95.84
2019-05-02T18:12:07.246Z,95.43
2019-05-02T18:14:35.725Z,96.47
2019-05-02T18:17:04.888Z,97.42
2019-05-02T18:19:34.090Z,98.11
2019-05-02T18:22:07.120Z,96.92
2019-05-02T18:24:37.335Z,97.15
2019-05-02T18:27:12.865Z,98.10
2019-05-02T18:29:45.463Z,98.59
2019-05-02T18:32:17.556Z,98.59
2019-05-02T18:34:44.556Z,97.22
2019-05-02T18:37:14.504Z,97.96
2019-05-02T18:39:49.878Z,97.96
2019-05-02T18:42:16.561Z,100.00
2019-05-02T18:44:48.233Z,100.00
2019-05-02T18:47:20.082Z,100.00
2019-05-02T18:49:48.546Z,100.00
2019-05-02T18:52:17.751Z,100.00
2019-05-02T18:54:47.472Z,100.00
2019-05-02T18:57:29.667Z,100.00
2019-05-02T18:59:56.487Z,100.00
2019-05-02T19:02:32.713Z,100.00
2019-05-02T19:04:57.610Z,100.00
2019-05-02T19:07:32.941Z,100.00
2019-05-02T19:09:58.901Z,100.00
2019-05-02T19:12:29.033Z,100.00
2019-05-02T19:15:03.090Z,100.00
2019-05-02T19:17:29.259Z,100.00
2019-05-02T19:19:58.399Z,100.00
2019-05-02T19:22:27.688Z,100.00
2019-05-02T19:25:01.862Z,100.00
2019-05-02T19:27:52.021Z,100.00
2019-05-02T19:30:27.201Z,100.00
2019-05-02T19:32:57.766Z,100.00
2019-05-02T19:35:25.967Z,100.00
2019-05-02T19:37:55.272Z,100.00
2019-05-02T19:40:28.149Z,100.00
2019-05-02T19:42:57.367Z,100.00
2019-05-02T19:45:30.125Z,100.00
2019-05-02T19:48:02.678Z,100.00
2019-05-02T19:50:41.710Z,100.00
2019-05-02T19:53:15.222Z,100.00
2019-05-02T19:55:39.318Z,100.00
2019-05-02T19:58:10.323Z,100.00
2019-05-02T20:18:52.778Z,100.00
2019-05-02T20:22:40.995Z,100.00
2019-05-02T21:09:26.160Z,100.00
2019-05-02T22:09:42.269Z,100.00
2019-05-02T22:20:25.630Z,100.00
2019-05-02T22:26:10.125Z,100.00
